createdAt,value
2023-03-21T00:01:05.986Z,77.30
2023-03-21T00:03:39.062Z,78.40
2023-03-21T00:06:14.912Z,81.90
2023-03-21T00:08:48.599Z,82.00
2023-03-21T00:11:22.713Z,77.90
2023-03-21T00:13:59.095Z,88.80
2023-03-21T00:16:36.650Z,87.00
2023-03-21T00:19:10.998Z,83.90
2023-03-21T00:22:03.202Z,87.90
2023-03-21T00:24:39.783Z,81.90
2023-03-21T00:27:39.746Z,87.80
2023-03-21T00:30:10.961Z,76.80
2023-03-21T00:32:55.425Z,80.30
2023-03-21T00:38:26.363Z,75.60
2023-03-21T00:41:04.700Z,74.20
2023-03-21T00:43:41.984Z,68.20
2023-03-21T00:46:15.712Z,87.50
2023-03-21T00:48:49.278Z,76.80
2023-03-21T00:51:29.342Z,83.30
2023-03-21T00:54:06.180Z,80.60
2023-03-21T00:56:39.112Z,84.70
2023-03-21T00:59:12.057Z,85.10
2023-03-21T01:01:47.315Z,86.20
2023-03-21T01:04:21.842Z,80.10
2023-03-21T01:06:56.321Z,87.20
2023-03-21T01:09:31.021Z,85.40
2023-03-21T01:12:06.233Z,89.80
2023-03-21T01:14:40.461Z,78.60
2023-03-21T01:17:14.039Z,90.10
2023-03-21T01:19:52.085Z,84.30
2023-03-21T01:22:27.223Z,79.80
2023-03-21T01:25:12.179Z,81.30
2023-03-21T01:27:55.375Z,78.50
2023-03-21T01:30:31.300Z,82.50
2023-03-21T01:33:09.411Z,77.00
2023-03-21T01:35:50.500Z,72.60
2023-03-21T01:38:28.438Z,71.80
2023-03-21T01:41:08.646Z,76.70
2023-03-21T01:43:47.962Z,80.10
2023-03-21T01:46:25.000Z,83.30
2023-03-21T01:49:26.002Z,81.20
2023-03-21T01:52:26.527Z,74.70
2023-03-21T01:55:12.847Z,79.70
2023-03-21T01:58:08.500Z,78.60
2023-03-21T02:00:57.344Z,69.30
2023-03-21T02:03:53.765Z,75.00
2023-03-21T02:06:58.402Z,74.80
2023-03-21T02:09:54.131Z,78.60
2023-03-21T02:12:29.858Z,79.00
2023-03-21T02:15:04.930Z,71.00
2023-03-21T02:18:04.938Z,65.90
2023-03-21T02:21:16.259Z,77.40
2023-03-21T02:23:55.909Z,69.60
2023-03-21T02:27:04.381Z,80.40
2023-03-21T02:30:14.865Z,72.70
2023-03-21T02:33:03.419Z,76.40
2023-03-21T02:36:18.381Z,79.00
2023-03-21T02:39:05.443Z,80.70
2023-03-21T02:41:53.672Z,85.00
2023-03-21T02:44:45.471Z,75.00
2023-03-21T02:47:31.874Z,82.50
2023-03-21T02:50:25.485Z,92.40
2023-03-21T02:53:00.731Z,94.60
2023-03-21T02:55:39.341Z,99.30
2023-03-21T02:58:17.043Z,104.90
2023-03-21T03:00:58.793Z,103.70
2023-03-21T03:03:40.302Z,100.50
2023-03-21T03:06:25.294Z,89.00
2023-03-21T03:09:23.411Z,92.40
2023-03-21T03:12:31.912Z,83.50
2023-03-21T03:15:22.851Z,84.00
2023-03-21T03:18:13.564Z,73.50
2023-03-21T03:20:47.354Z,92.20
2023-03-21T03:23:41.838Z,109.00
2023-03-21T03:26:29.314Z,91.30
2023-03-21T03:29:09.743Z,83.30
2023-03-21T03:32:27.958Z,77.00
2023-03-21T03:35:03.162Z,76.90
2023-03-21T03:37:38.581Z,81.80
2023-03-21T03:40:17.956Z,79.90
2023-03-21T03:43:06.220Z,83.30
2023-03-21T03:45:51.735Z,80.10
2023-03-21T03:48:47.166Z,77.30
2023-03-21T03:51:40.214Z,81.90
2023-03-21T03:54:27.083Z,76.40
2023-03-21T03:56:59.897Z,82.50
2023-03-21T03:59:32.678Z,84.30
2023-03-21T04:02:30.933Z,82.40
2023-03-21T04:05:07.486Z,83.70
2023-03-21T04:07:42.104Z,94.40
2023-03-21T04:10:15.110Z,99.30
2023-03-21T04:12:48.329Z,95.00
2023-03-21T04:15:43.734Z,94.20
2023-03-21T04:18:20.299Z,102.50
2023-03-21T04:20:53.766Z,104.30
2023-03-21T04:23:26.833Z,97.30
2023-03-21T04:26:00.048Z,101.30
2023-03-21T04:28:40.327Z,97.40
2023-03-21T04:31:31.593Z,86.10
2023-03-21T04:34:12.952Z,87.70
2023-03-21T04:36:54.738Z,94.90
2023-03-21T04:39:28.016Z,116.20
2023-03-21T04:42:02.881Z,111.50
2023-03-21T04:44:36.654Z,140.00
2023-03-21T04:47:10.177Z,94.30
2023-03-21T04:49:44.690Z,83.30
2023-03-21T04:52:18.706Z,70.90
2023-03-21T04:54:54.368Z,66.70
2023-03-21T04:57:27.524Z,72.70
2023-03-21T05:00:00.242Z,71.50
2023-03-21T05:02:32.833Z,73.30
2023-03-21T05:05:05.863Z,86.80
2023-03-21T05:07:40.093Z,79.40
2023-03-21T05:10:14.829Z,78.10
2023-03-21T05:12:48.534Z,78.80
2023-03-21T05:15:22.350Z,76.00
2023-03-21T05:17:55.712Z,77.30
2023-03-21T05:20:29.624Z,76.60
2023-03-21T05:23:02.896Z,73.30
2023-03-21T05:25:38.853Z,71.20
2023-03-21T05:28:21.450Z,71.70
2023-03-21T05:30:54.894Z,80.10
2023-03-21T05:33:28.030Z,69.20
2023-03-21T05:36:01.484Z,75.90
2023-03-21T05:38:37.408Z,73.10
2023-03-21T05:41:11.535Z,75.20
2023-03-21T05:43:45.449Z,81.00
2023-03-21T05:46:21.640Z,82.90
2023-03-21T05:48:55.698Z,75.30
2023-03-21T05:51:30.444Z,72.20
2023-03-21T05:54:04.223Z,70.80
2023-03-21T05:56:38.470Z,68.20
2023-03-21T05:59:15.002Z,73.30
2023-03-21T06:01:48.416Z,77.40
2023-03-21T06:04:21.643Z,72.80
2023-03-21T06:06:55.532Z,81.60
2023-03-21T06:09:29.743Z,72.80
2023-03-21T06:12:05.437Z,74.70
2023-03-21T06:15:13.220Z,79.70
2023-03-21T06:18:03.630Z,71.90
2023-03-21T06:20:37.545Z,77.70
2023-03-21T06:23:16.377Z,74.00
2023-03-21T06:25:51.237Z,82.80
2023-03-21T06:28:24.506Z,80.60
2023-03-21T06:30:57.997Z,84.20
2023-03-21T06:33:33.543Z,84.60
2023-03-21T06:36:07.475Z,86.40
2023-03-21T06:38:41.500Z,99.40
2023-03-21T06:41:15.301Z,103.60
2023-03-21T06:43:51.211Z,93.00
2023-03-21T06:46:24.538Z,92.50
2023-03-21T06:48:57.983Z,85.80
2023-03-21T06:51:32.294Z,97.20
2023-03-21T06:54:18.669Z,90.00
2023-03-21T06:56:59.392Z,101.80
2023-03-21T06:59:36.827Z,102.10
2023-03-21T07:02:16.680Z,100.30
2023-03-21T07:05:10.093Z,108.80
2023-03-21T07:07:43.601Z,116.60
2023-03-21T07:10:16.577Z,114.90
2023-03-21T07:13:05.230Z,102.60
2023-03-21T07:15:44.889Z,104.70
2023-03-21T07:18:18.398Z,102.00
2023-03-21T07:20:53.392Z,103.00
2023-03-21T07:23:27.688Z,113.20
2023-03-21T07:26:02.007Z,98.90
2023-03-21T07:28:35.316Z,97.40
2023-03-21T07:31:10.782Z,106.10
2023-03-21T07:33:44.180Z,94.90
2023-03-21T07:36:18.465Z,98.70
2023-03-21T07:38:55.045Z,107.70
2023-03-21T07:41:29.755Z,108.00
2023-03-21T07:44:15.307Z,87.80
2023-03-21T07:46:49.089Z,81.20
2023-03-21T07:49:22.461Z,80.90
2023-03-21T07:51:56.437Z,91.20
2023-03-21T07:54:29.595Z,79.30
2023-03-21T07:57:02.564Z,77.30
2023-03-21T07:59:40.350Z,74.60
2023-03-21T08:02:20.033Z,65.60
2023-03-21T08:04:53.218Z,71.30
2023-03-21T08:07:28.178Z,61.80
2023-03-21T08:10:01.747Z,62.80
2023-03-21T08:12:34.722Z,65.90
2023-03-21T08:15:09.299Z,65.10
2023-03-21T08:17:46.645Z,63.20
2023-03-21T08:20:22.420Z,65.90
2023-03-21T08:22:58.912Z,59.10
2023-03-21T08:25:31.984Z,57.40
2023-03-21T08:28:05.409Z,62.60
2023-03-21T08:30:39.900Z,60.30
2023-03-21T08:33:14.047Z,62.80
2023-03-21T08:35:47.303Z,61.80
2023-03-21T08:38:20.306Z,60.50
2023-03-21T08:40:53.739Z,63.60
2023-03-21T08:43:31.177Z,61.70
2023-03-21T08:46:04.792Z,60.40
2023-03-21T08:48:39.392Z,63.30
2023-03-21T08:51:12.901Z,56.00
2023-03-21T08:53:46.645Z,54.90
2023-03-21T08:56:19.751Z,60.50
2023-03-21T08:58:52.563Z,62.20
2023-03-21T09:01:25.491Z,58.00
2023-03-21T09:03:58.855Z,53.50
2023-03-21T09:06:34.057Z,58.60
2023-03-21T09:09:08.943Z,62.60
2023-03-21T09:11:42.281Z,56.80
2023-03-21T09:14:15.331Z,54.50
2023-03-21T09:16:48.123Z,52.20
2023-03-21T09:19:21.240Z,61.80
2023-03-21T09:21:54.658Z,58.40
2023-03-21T09:24:27.982Z,56.90
2023-03-21T09:27:01.103Z,62.20
2023-03-21T09:29:34.644Z,69.70
2023-03-21T09:32:08.869Z,64.90
2023-03-21T09:34:42.383Z,53.80
2023-03-21T09:37:16.224Z,55.10
2023-03-21T09:39:51.886Z,58.60
2023-03-21T09:42:48.534Z,56.50
2023-03-21T09:45:27.876Z,57.70
2023-03-21T09:48:01.471Z,52.60
2023-03-21T09:50:40.856Z,63.50
2023-03-21T09:53:30.705Z,57.10
2023-03-21T09:56:06.361Z,54.50
2023-03-21T09:58:43.453Z,59.00
2023-03-21T10:01:34.737Z,54.20
2023-03-21T10:04:09.992Z,52.80
2023-03-21T10:06:46.546Z,51.40
2023-03-21T10:09:24.969Z,51.90
2023-03-21T10:12:04.968Z,53.60
2023-03-21T10:14:52.712Z,59.80
2023-03-21T10:17:45.275Z,53.80
2023-03-21T10:20:28.898Z,54.20
2023-03-21T10:23:05.152Z,52.40
2023-03-21T10:25:45.502Z,54.30
2023-03-21T10:28:22.459Z,50.70
2023-03-21T10:31:03.536Z,53.30
2023-03-21T10:33:43.186Z,51.40
2023-03-21T10:36:26.562Z,48.30
2023-03-21T10:39:07.049Z,53.60
2023-03-21T10:41:40.752Z,52.00
2023-03-21T10:44:18.355Z,53.60
2023-03-21T10:47:00.659Z,47.50
2023-03-21T10:49:40.745Z,50.40
2023-03-21T10:52:29.263Z,51.10
2023-03-21T10:55:32.572Z,46.10
2023-03-21T10:58:11.260Z,46.60
2023-03-21T11:00:45.993Z,47.30
2023-03-21T11:03:31.813Z,42.50
2023-03-21T11:06:30.660Z,42.40
2023-03-21T11:09:21.048Z,36.30
2023-03-21T11:12:07.337Z,43.50
2023-03-21T11:14:49.265Z,49.00
2023-03-21T11:17:31.925Z,38.00
2023-03-21T11:20:13.077Z,35.80
2023-03-21T11:22:48.072Z,34.90
2023-03-21T11:25:49.829Z,33.90
2023-03-21T11:28:26.032Z,37.00
2023-03-21T11:31:02.506Z,38.80
2023-03-21T11:33:46.647Z,37.90
2023-03-21T11:36:22.383Z,35.30
2023-03-21T11:39:02.254Z,34.80
2023-03-21T11:41:41.557Z,35.00
2023-03-21T11:44:33.975Z,35.90
2023-03-21T11:47:06.882Z,36.30
2023-03-21T11:49:39.712Z,34.10
2023-03-21T11:52:41.344Z,40.20
2023-03-21T11:55:43.373Z,38.50
2023-03-21T11:58:34.769Z,33.90
2023-03-21T12:01:14.693Z,32.70
2023-03-21T12:04:09.404Z,31.30
2023-03-21T12:06:56.502Z,32.10
2023-03-21T12:09:38.544Z,35.60
2023-03-21T12:12:39.130Z,30.60
2023-03-21T12:15:41.554Z,36.20
2023-03-21T12:21:22.060Z,35.30
2023-03-21T12:24:41.748Z,30.20
2023-03-21T12:27:42.550Z,29.90
2023-03-21T12:30:34.125Z,28.80
2023-03-21T12:33:21.550Z,25.30
2023-03-21T12:36:22.280Z,24.80
2023-03-21T12:39:19.310Z,24.90
2023-03-21T12:42:12.799Z,27.00
2023-03-21T12:44:52.742Z,21.70
2023-03-21T12:47:32.456Z,26.50
2023-03-21T12:50:25.497Z,26.60
2023-03-21T12:53:04.231Z,25.20
2023-03-21T12:55:39.960Z,29.60
2023-03-21T12:58:21.880Z,23.20
2023-03-21T13:01:01.911Z,24.40
2023-03-21T13:03:46.218Z,20.60
2023-03-21T13:06:22.001Z,24.50
2023-03-21T13:09:36.759Z,21.50
2023-03-21T13:12:41.526Z,21.30
2023-03-21T13:18:29.954Z,20.20
2023-03-21T13:21:19.984Z,26.70
2023-03-21T13:24:04.689Z,24.50
2023-03-21T13:26:42.978Z,29.50
2023-03-21T13:29:27.606Z,20.30
2023-03-21T13:32:17.727Z,21.80
2023-03-21T13:35:00.115Z,22.80
2023-03-21T13:37:35.846Z,19.40
2023-03-21T13:40:43.979Z,22.30
2023-03-21T13:43:34.339Z,19.90
2023-03-21T13:46:16.337Z,22.80
2023-03-21T13:49:12.859Z,21.50
2023-03-21T13:51:58.823Z,20.60
2023-03-21T13:54:58.633Z,22.70
2023-03-21T13:57:31.265Z,19.60
2023-03-21T14:00:24.440Z,24.40
2023-03-21T14:03:12.144Z,21.80
2023-03-21T14:05:52.130Z,26.10
2023-03-21T14:08:36.871Z,26.00
2023-03-21T14:11:18.823Z,28.50
2023-03-21T14:13:52.566Z,28.80
2023-03-21T14:16:30.621Z,25.50
2023-03-21T14:19:07.977Z,29.60
2023-03-21T14:21:48.659Z,30.10
2023-03-21T14:24:22.650Z,27.10
2023-03-21T14:26:59.428Z,29.70
2023-03-21T14:29:37.269Z,34.80
2023-03-21T14:32:21.856Z,31.90
2023-03-21T14:34:56.521Z,35.70
2023-03-21T14:37:40.773Z,28.60
2023-03-21T14:40:26.130Z,34.10
2023-03-21T14:43:00.052Z,32.20
2023-03-21T14:45:36.539Z,30.40
2023-03-21T14:48:16.824Z,33.20
2023-03-21T14:51:05.264Z,30.80
2023-03-21T14:53:44.839Z,30.80
2023-03-21T14:56:36.504Z,31.70
2023-03-21T14:59:14.061Z,34.00
2023-03-21T15:01:49.820Z,29.50
2023-03-21T15:04:23.348Z,30.50
2023-03-21T15:07:05.714Z,37.10
2023-03-21T15:12:13.207Z,38.20
2023-03-21T15:14:46.578Z,41.60
2023-03-21T15:17:20.504Z,47.00
2023-03-21T15:19:53.337Z,39.90
2023-03-21T15:22:52.121Z,38.90
2023-03-21T15:25:35.066Z,43.40
2023-03-21T15:28:08.623Z,42.10
2023-03-21T15:30:50.829Z,43.50
2023-03-21T15:36:02.413Z,40.40
2023-03-21T15:38:53.617Z,40.10
2023-03-21T15:41:26.196Z,45.30
2023-03-21T15:44:18.289Z,48.30
2023-03-21T15:46:53.077Z,47.90
2023-03-21T15:49:32.004Z,42.30
2023-03-21T15:52:20.121Z,37.10
2023-03-21T15:55:04.603Z,38.40
2023-03-21T15:57:38.534Z,37.50
2023-03-21T16:00:20.497Z,34.90
2023-03-21T16:03:01.693Z,41.80
2023-03-21T16:05:36.016Z,35.90
2023-03-21T16:08:21.034Z,35.40
2023-03-21T16:10:53.873Z,36.90
2023-03-21T16:13:26.727Z,41.20
2023-03-21T16:15:59.895Z,40.00
2023-03-21T16:18:33.191Z,38.30
2023-03-21T16:21:06.644Z,41.90
2023-03-21T16:23:39.756Z,37.20
2023-03-21T16:26:17.093Z,43.10
2023-03-21T16:28:50.707Z,39.90
2023-03-21T16:31:31.390Z,40.20
2023-03-21T16:34:05.609Z,38.20
2023-03-21T16:36:41.456Z,37.50
2023-03-21T16:39:21.584Z,48.00
2023-03-21T16:41:54.618Z,42.60
2023-03-21T16:44:27.546Z,49.10
2023-03-21T16:47:02.205Z,44.60
2023-03-21T16:49:35.683Z,43.90
2023-03-21T16:52:08.660Z,48.40
2023-03-21T16:54:42.650Z,46.50
2023-03-21T16:57:35.117Z,40.60
2023-03-21T17:00:11.911Z,45.90
2023-03-21T17:02:44.536Z,46.60
2023-03-21T17:05:17.411Z,44.40
2023-03-21T17:07:50.352Z,49.10
2023-03-21T17:10:29.152Z,43.70
2023-03-21T17:13:02.381Z,45.60
2023-03-21T17:15:35.196Z,55.10
2023-03-21T17:18:08.199Z,266.10
2023-03-21T17:20:42.119Z,121.00
2023-03-21T17:23:15.467Z,113.00
2023-03-21T17:25:48.302Z,88.30
2023-03-21T17:28:21.053Z,68.00
2023-03-21T17:30:54.095Z,98.70
2023-03-21T17:33:27.582Z,86.50
2023-03-21T17:36:01.122Z,68.10
2023-03-21T17:38:35.645Z,59.90
2023-03-21T17:41:11.132Z,58.80
2023-03-21T17:43:44.042Z,61.70
2023-03-21T17:46:25.537Z,61.60
2023-03-21T17:48:58.978Z,56.50
2023-03-21T17:51:33.542Z,60.30
2023-03-21T17:54:07.184Z,63.00
2023-03-21T17:56:42.196Z,63.50
2023-03-21T17:59:16.481Z,63.00
2023-03-21T18:01:49.878Z,57.40
2023-03-21T18:04:23.212Z,59.60
2023-03-21T18:07:01.098Z,63.60
2023-03-21T18:09:34.446Z,59.80
2023-03-21T18:12:07.594Z,63.00
2023-03-21T18:14:40.856Z,66.70
2023-03-21T18:17:13.936Z,65.00
2023-03-21T18:19:48.083Z,66.40
2023-03-21T18:22:20.598Z,71.10
2023-03-21T18:24:53.988Z,74.50
2023-03-21T18:27:27.384Z,72.80
2023-03-21T18:32:54.717Z,68.20
2023-03-21T18:35:28.313Z,68.20
2023-03-21T18:38:03.258Z,70.50
2023-03-21T18:40:36.817Z,67.00
2023-03-21T18:43:56.002Z,59.90
2023-03-21T18:46:04.404Z,52.30
2023-03-21T18:48:37.572Z,60.60
2023-03-21T18:51:10.736Z,55.30
2023-03-21T18:53:43.681Z,58.70
2023-03-21T18:59:12.956Z,62.90
2023-03-21T19:01:46.183Z,64.80
2023-03-21T19:04:25.614Z,56.50
2023-03-21T19:07:05.656Z,57.30
2023-03-21T19:10:01.453Z,58.20
2023-03-21T19:12:33.635Z,54.40
2023-03-21T19:15:07.076Z,58.40
2023-03-21T19:18:28.615Z,56.10
2023-03-21T19:20:35.445Z,57.30
2023-03-21T19:23:09.694Z,58.80
2023-03-21T19:25:44.244Z,61.40
2023-03-21T19:28:17.237Z,101.40
2023-03-21T19:30:50.980Z,104.40
2023-03-21T19:33:25.002Z,102.60
2023-03-21T19:36:12.955Z,97.50
2023-03-21T19:38:51.828Z,105.30
2023-03-21T19:41:25.437Z,84.40
2023-03-21T19:43:57.979Z,86.00
2023-03-21T19:46:31.868Z,86.40
2023-03-21T19:49:06.593Z,86.10
2023-03-21T19:51:40.145Z,87.70
2023-03-21T19:54:13.141Z,81.10
2023-03-21T19:56:48.039Z,82.60
2023-03-21T19:59:21.477Z,78.70
2023-03-21T20:01:57.028Z,83.00
2023-03-21T20:04:35.897Z,83.10
2023-03-21T20:07:09.064Z,82.80
2023-03-21T20:09:52.291Z,77.70
2023-03-21T20:12:28.098Z,63.80
2023-03-21T20:15:16.598Z,74.10
2023-03-21T20:17:54.987Z,77.60
2023-03-21T20:20:27.944Z,71.40
2023-03-21T20:23:07.314Z,61.40
2023-03-21T20:25:46.172Z,66.50
2023-03-21T20:28:25.798Z,70.80
2023-03-21T20:31:03.567Z,75.90
2023-03-21T20:33:37.028Z,70.00
2023-03-21T20:36:37.562Z,76.60
2023-03-21T20:39:05.732Z,85.70
2023-03-21T20:41:39.468Z,91.10
2023-03-21T20:44:47.984Z,87.30
2023-03-21T20:47:08.853Z,83.90
2023-03-21T20:49:41.902Z,97.80
2023-03-21T20:52:54.492Z,114.60
2023-03-21T20:55:12.024Z,100.30
2023-03-21T20:57:48.424Z,106.20
2023-03-21T21:00:22.736Z,93.70
2023-03-21T21:02:57.208Z,95.30
2023-03-21T21:05:34.507Z,83.40
2023-03-21T21:08:11.286Z,86.00
2023-03-21T21:11:21.036Z,76.60
2023-03-21T21:13:41.064Z,75.20
2023-03-21T21:16:15.073Z,72.40
2023-03-21T21:18:48.311Z,67.80
2023-03-21T21:21:21.294Z,70.80
2023-03-21T21:23:54.408Z,78.50
2023-03-21T21:26:27.621Z,83.10
2023-03-21T21:29:02.035Z,69.90
2023-03-21T21:31:36.298Z,70.00
2023-03-21T21:34:09.685Z,64.40
2023-03-21T21:36:43.698Z,67.50
2023-03-21T21:39:17.441Z,59.90
2023-03-21T21:41:50.555Z,63.70
2023-03-21T21:44:24.359Z,60.00
2023-03-21T21:46:58.400Z,65.80
2023-03-21T21:49:32.092Z,64.60
2023-03-21T21:52:05.334Z,54.70
2023-03-21T21:54:39.819Z,57.10
2023-03-21T21:57:13.088Z,49.70
2023-03-21T21:59:46.349Z,59.00
2023-03-21T22:02:19.803Z,55.40
2023-03-21T22:04:56.282Z,54.40
2023-03-21T22:07:32.841Z,57.40
2023-03-21T22:10:06.390Z,57.50
2023-03-21T22:12:39.460Z,69.50
2023-03-21T22:15:15.020Z,70.80
2023-03-21T22:17:48.739Z,69.40
2023-03-21T22:20:23.534Z,67.10
2023-03-21T22:23:00.113Z,66.70
2023-03-21T22:25:33.778Z,62.20
2023-03-21T22:28:07.359Z,61.70
2023-03-21T22:30:40.905Z,68.00
2023-03-21T22:33:14.261Z,62.90
2023-03-21T22:35:47.640Z,65.90
2023-03-21T22:38:26.249Z,56.50
2023-03-21T22:41:00.748Z,55.70
2023-03-21T22:43:37.686Z,62.60
2023-03-21T22:46:11.331Z,63.50
2023-03-21T22:48:44.686Z,62.80
2023-03-21T22:51:18.095Z,68.70
2023-03-21T22:53:51.321Z,72.70
2023-03-21T22:56:24.416Z,95.20
2023-03-21T22:58:57.735Z,110.40
2023-03-21T23:01:31.924Z,99.30
2023-03-21T23:04:04.809Z,85.30
2023-03-21T23:06:38.184Z,75.40
2023-03-21T23:09:11.600Z,71.80
2023-03-21T23:11:46.710Z,67.00
2023-03-21T23:14:23.039Z,64.60
2023-03-21T23:17:00.800Z,65.50
2023-03-21T23:19:34.278Z,61.40
2023-03-21T23:22:07.904Z,57.90
2023-03-21T23:24:40.965Z,49.40
2023-03-21T23:27:14.853Z,58.00
2023-03-21T23:29:48.106Z,59.60
2023-03-21T23:32:21.347Z,56.80
2023-03-21T23:34:56.266Z,60.10
2023-03-21T23:37:30.645Z,63.30
2023-03-21T23:40:06.777Z,61.20
2023-03-21T23:42:39.985Z,59.60
2023-03-21T23:45:13.224Z,61.80
2023-03-21T23:47:46.630Z,61.80
2023-03-21T23:50:19.987Z,66.60
2023-03-21T23:52:52.757Z,65.90
2023-03-21T23:55:25.941Z,62.10
2023-03-21T23:58:01.324Z,59.00
